Terminal Aerodrome Forecast
Issued by NWS Huntsville, AL

Home | Current Version | Previous Version | Text Only | Print | Product List | Glossary On
Versions: 1 2 3 4 5 6 7 8 9 10 11 12 13 14 15 16 17 18 19 20 21 22 23 24 25 26 27 28 29 30 31 32 33 34 35 36 37 38
388
FTUS44 KHUN 211730
TAFMSL
TAF
KMSL 211730Z 2118/2218 11006KT P6SM SCT025 SCT250
     FM220000 14005KT P6SM OVC040
     FM220400 14005KT P6SM VCTS SCT018CB BKN025
      TEMPO 2205/2209 2SM TSRA OVC018CB
     FM220900 22008KT 5SM BR VCSH OVC009
     FM221300 23009KT 5SM -RA BR OVC015=

USA.gov is the U.S. government's official web portal to all federal, state and local government web resources and services.